Kasagimaru — JJ3905 — position and weather

sailwx.info

Track history (hours):
 
Tides and Currents Weather Stations Pressure Air Temp Water Temp Dewpoint Dewpoint Depression Visibility Wind Speed Wind Dir Waves Ship Positions

Kasagimaru

Last reported at 2015-Apr-18 18:33 UTC. Time now 2015-Apr-18 19:19 UTC.
Position N 34°13' E 135°09'.

Length 42 m; draft 3.5 m.

Type: Tug. MMSI: 431300268.

Date/timePositionNaut miles runAvg speedWind from/ knotsBaromVisibWave heightAir tempDewpointWater temp
2015-Apr-18 18:33N 34°13' E 135°09'0 0.0
2015-Apr-18 17:33N 34°13' E 135°09'0 0.0
2015-Apr-18 16:33N 34°13' E 135°09'0 0.0
2015-Apr-18 15:33N 34°13' E 135°09'0 0.0
2015-Apr-18 14:33N 34°13' E 135°09'0 0.0
2015-Apr-18 13:33N 34°13' E 135°09'0 0.0
2015-Apr-18 12:33N 34°13' E 135°09'0 0.0
2015-Apr-18 11:33N 34°13' E 135°09'0 0.0
2015-Apr-18 10:33N 34°13' E 135°09'0 0.0
2015-Apr-18 09:33N 34°13' E 135°09'2 2.3
2015-Apr-18 08:33N 34°13' E 135°06'10 8.8
2015-Apr-18 07:28N 34°21' E 134°60'1213.2
2015-Apr-18 06:32N 34°32' E 135°06'20 0.8
2015-Apr-17 04:23N 34°35' E 134°43'1410.6
2015-Apr-17 03:05N 34°38' E 134°59'5 9.9
2015-Apr-17 02:33N 34°36' E 135°05'5 5.2
2015-Apr-17 01:33N 34°31' E 135°08'1611.8
2015-Apr-17 00:09N 34°16' E 134°59'610.1
2015-Apr-16 23:33N 34°10' E 134°59'19 0.8
2015-Apr-16 00:06N 33°59' E 134°41'20 4.9
2015-Apr-15 20:06N 34°14' E 134°57'811.4
2015-Apr-15 19:23N 34°22' E 135°00'1011.5
2015-Apr-15 18:33N 34°26' E 135°11'1211.9
2015-Apr-15 17:32N 34°33' E 135°23'3 1.0
2015-Apr-15 14:28N 34°33' E 135°27'0 0.0
2015-Apr-15 11:33N 34°33' E 135°27'0 0.0
2015-Apr-15 10:33N 34°33' E 135°27'0 0.0
2015-Apr-15 09:34N 34°33' E 135°27'0 0.0
2015-Apr-15 08:33N 34°33' E 135°27'0 0.0
2015-Apr-15 07:33N 34°33' E 135°27'0 0.0
2015-Apr-15 06:33N 34°33' E 135°27'0 0.0
2015-Apr-15 05:33N 34°33' E 135°27'0 0.0
2015-Apr-15 04:33N 34°33' E 135°27'0 0.0
2015-Apr-15 03:33N 34°33' E 135°27'0 0.0
2015-Apr-15 02:33N 34°33' E 135°27'1 1.3
2015-Apr-15 01:32N 34°33' E 135°25'0 0.2
2015-Apr-15 00:33N 34°33' E 135°25'0 0.0
2015-Apr-14 23:33N 34°33' E 135°25'0 0.1
2015-Apr-14 22:30N 34°33' E 135°25'0 0.1
2015-Apr-14 21:33N 34°33' E 135°25'0 0.0
2015-Apr-14 20:33N 34°33' E 135°25'0 0.0
2015-Apr-14 19:33N 34°33' E 135°25'0 0.0
2015-Apr-14 18:33N 34°33' E 135°25'0 0.1
2015-Apr-14 17:33N 34°33' E 135°25'0 0.1
2015-Apr-14 16:28N 34°33' E 135°25'0 0.0
2015-Apr-14 15:30N 34°33' E 135°25'0 0.0
2015-Apr-14 14:33N 34°33' E 135°25'0 0.1
2015-Apr-14 13:32N 34°33' E 135°25'0 0.1
2015-Apr-14 12:33N 34°33' E 135°25'0 0.0
2015-Apr-14 11:32N 34°33' E 135°25'0 0.1
2015-Apr-14 10:32N 34°33' E 135°25'0 0.1
2015-Apr-14 09:33N 34°33' E 135°25'0 0.0
2015-Apr-14 08:33N 34°33' E 135°25'0 0.0
2015-Apr-14 07:32N 34°33' E 135°25'0 0.1
2015-Apr-14 06:33N 34°33' E 135°25'0 0.0
2015-Apr-14 05:33N 34°33' E 135°25'0 0.0
2015-Apr-14 04:33N 34°33' E 135°25'0 0.0
2015-Apr-14 03:33N 34°33' E 135°25'0 0.1
2015-Apr-14 02:32N 34°33' E 135°25'0 0.1
2015-Apr-14 01:32N 34°33' E 135°25'3 3.5
2015-Apr-14 00:33N 34°33' E 135°21'2 2.4
2015-Apr-13 23:33N 34°31' E 135°19'11 1.0
2015-Apr-13 12:33N 34°23' E 135°11'1311.9
2015-Apr-13 11:30N 34°15' E 134°59'1212.5
2015-Apr-13 10:32N 34°27' E 135°03'8 8.6
2015-Apr-13 09:34N 34°35' E 135°04'20 0.6
2015-Apr-12 01:22N 34°40' E 134°41'18 9.9
2015-Apr-11 23:33N 34°37' E 135°03'7 7.4
2015-Apr-11 22:33N 34°30' E 135°07'1411.4
2015-Apr-11 21:18N 34°17' E 134°59'7 9.5
2015-Apr-11 20:34N 34°10' E 135°00'8 7.9
2015-Apr-11 19:34N 34°13' E 135°09'0 0.0
2015-Apr-11 18:33N 34°13' E 135°09'0 0.0
2015-Apr-11 17:34N 34°13' E 135°09'0 0.0
2015-Apr-11 16:33N 34°13' E 135°09'0 0.0
2015-Apr-11 15:33N 34°13' E 135°09'0 0.0
2015-Apr-11 14:33N 34°13' E 135°09'0 0.0
2015-Apr-11 13:34N 34°13' E 135°09'0 0.0
2015-Apr-11 12:33N 34°13' E 135°09'0 0.0
2015-Apr-11 11:33N 34°13' E 135°09'0 0.0
2015-Apr-11 10:33N 34°13' E 135°09'0 0.0
2015-Apr-11 09:34N 34°13' E 135°09'0 0.0
2015-Apr-11 08:33N 34°13' E 135°09'0 0.0
2015-Apr-11 07:33N 34°13' E 135°09'0 0.0
2015-Apr-11 06:33N 34°13' E 135°09'0 0.0
2015-Apr-11 05:33N 34°13' E 135°09'0 0.0
2015-Apr-11 04:33N 34°13' E 135°09'0 0.0
2015-Apr-11 03:33N 34°13' E 135°09'1 1.0
2015-Apr-11 02:33N 34°13' E 135°08'9 8.1
2015-Apr-11 01:30N 34°21' E 135°07'1112.0
2015-Apr-11 00:33N 34°28' E 135°19'6 6.3
2015-Apr-10 23:33N 34°33' E 135°24'2 2.3
2015-Apr-10 22:31N 34°33' E 135°27'0 0.0
2015-Apr-10 21:33N 34°33' E 135°27'0 0.0
2015-Apr-10 20:32N 34°33' E 135°27'0 0.0
2015-Apr-10 19:33N 34°33' E 135°27'0 0.0
2015-Apr-10 18:33N 34°33' E 135°27'0 0.0
2015-Apr-10 17:33N 34°33' E 135°27'0 0.0
2015-Apr-10 16:33N 34°33' E 135°27'0 0.0
2015-Apr-10 15:33N 34°33' E 135°27'0 0.0
2015-Apr-10 14:32N 34°33' E 135°27'0 0.0
2015-Apr-10 13:32N 34°33' E 135°27'0 0.0
2015-Apr-10 12:33N 34°33' E 135°27'0 0.0
2015-Apr-10 11:33N 34°33' E 135°27'0 0.0
2015-Apr-10 10:33N 34°33' E 135°27'0 0.0
2015-Apr-10 09:32N 34°33' E 135°27'0 0.0
2015-Apr-10 08:30N 34°33' E 135°27'5 5.7
2015-Apr-10 07:33N 34°29' E 135°22'0 0.3
2015-Apr-10 06:33N 34°29' E 135°22'0 0.0
2015-Apr-10 05:32N 34°29' E 135°22'0 0.0
2015-Apr-10 04:32N 34°29' E 135°22'5 4.5
2015-Apr-10 03:32N 34°33' E 135°24'1 0.7
2015-Apr-10 02:31N 34°34' E 135°24'2 1.6
2015-Apr-10 01:18N 34°33' E 135°27'0 0.0
2015-Apr-10 00:32N 34°33' E 135°27'0 0.0
2015-Apr-09 20:10N 34°33' E 135°27'0 0.0
2015-Apr-09 19:31N 34°33' E 135°27'0 0.0
2015-Apr-09 18:33N 34°33' E 135°27'0 0.0
2015-Apr-09 14:04N 34°33' E 135°27'0 0.0
2015-Apr-09 10:33N 34°33' E 135°27'0 0.0
2015-Apr-09 09:31N 34°33' E 135°27'0 0.0
2015-Apr-09 08:33N 34°33' E 135°27'0 0.0
2015-Apr-09 07:29N 34°33' E 135°27'0 0.0
2015-Apr-09 04:21N 34°33' E 135°27'2 1.6
2015-Apr-09 03:08N 34°34' E 135°24'1 2.2
2015-Apr-09 02:28N 34°33' E 135°23'2 1.8
2015-Apr-09 01:33N 34°34' E 135°21'2 2.1
2015-Apr-09 00:32N 34°34' E 135°23'2 2.0
2015-Apr-08 23:31N 34°33' E 135°26'1 0.8
2015-Apr-08 22:33N 34°33' E 135°27'0 0.0
2015-Apr-08 21:33N 34°33' E 135°27'0 0.0
2015-Apr-08 20:33N 34°33' E 135°27'0 0.0
2015-Apr-08 19:33N 34°33' E 135°27'  
Track history (hours):
 
Tides and Currents Weather Stations Pressure Air Temp Water Temp Dewpoint Dewpoint Depression Visibility Wind Speed Wind Dir Waves Ship Positions

Kasagimaru

Last reported at 2015-Apr-18 18:33 UTC. Time now 2015-Apr-18 19:19 UTC.
Position N 34°13' E 135°09'.

Length 42 m; draft 3.5 m.

Type: Tug. MMSI: 431300268.

Date/timePositionNaut miles runAvg speedWind from/ knotsBaromVisibWave heightAir tempDewpointWater temp
2015-Apr-18 18:33N 34°13' E 135°09'0 0.0
2015-Apr-18 17:33N 34°13' E 135°09'0 0.0
2015-Apr-18 16:33N 34°13' E 135°09'0 0.0
2015-Apr-18 15:33N 34°13' E 135°09'0 0.0
2015-Apr-18 14:33N 34°13' E 135°09'0 0.0
2015-Apr-18 13:33N 34°13' E 135°09'0 0.0
2015-Apr-18 12:33N 34°13' E 135°09'0 0.0
2015-Apr-18 11:33N 34°13' E 135°09'0 0.0
2015-Apr-18 10:33N 34°13' E 135°09'0 0.0
2015-Apr-18 09:33N 34°13' E 135°09'2 2.3
2015-Apr-18 08:33N 34°13' E 135°06'10 8.8
2015-Apr-18 07:28N 34°21' E 134°60'1213.2
2015-Apr-18 06:32N 34°32' E 135°06'20 0.8
2015-Apr-17 04:23N 34°35' E 134°43'1410.6
2015-Apr-17 03:05N 34°38' E 134°59'5 9.9
2015-Apr-17 02:33N 34°36' E 135°05'5 5.2
2015-Apr-17 01:33N 34°31' E 135°08'1611.8
2015-Apr-17 00:09N 34°16' E 134°59'610.1
2015-Apr-16 23:33N 34°10' E 134°59'19 0.8
2015-Apr-16 00:06N 33°59' E 134°41'20 4.9
2015-Apr-15 20:06N 34°14' E 134°57'811.4
2015-Apr-15 19:23N 34°22' E 135°00'1011.5
2015-Apr-15 18:33N 34°26' E 135°11'1211.9
2015-Apr-15 17:32N 34°33' E 135°23'3 1.0
2015-Apr-15 14:28N 34°33' E 135°27'0 0.0
2015-Apr-15 11:33N 34°33' E 135°27'0 0.0
2015-Apr-15 10:33N 34°33' E 135°27'0 0.0
2015-Apr-15 09:34N 34°33' E 135°27'0 0.0
2015-Apr-15 08:33N 34°33' E 135°27'0 0.0
2015-Apr-15 07:33N 34°33' E 135°27'0 0.0
2015-Apr-15 06:33N 34°33' E 135°27'0 0.0
2015-Apr-15 05:33N 34°33' E 135°27'0 0.0
2015-Apr-15 04:33N 34°33' E 135°27'0 0.0
2015-Apr-15 03:33N 34°33' E 135°27'0 0.0
2015-Apr-15 02:33N 34°33' E 135°27'1 1.3
2015-Apr-15 01:32N 34°33' E 135°25'0 0.2
2015-Apr-15 00:33N 34°33' E 135°25'0 0.0
2015-Apr-14 23:33N 34°33' E 135°25'0 0.1
2015-Apr-14 22:30N 34°33' E 135°25'0 0.1
2015-Apr-14 21:33N 34°33' E 135°25'0 0.0
2015-Apr-14 20:33N 34°33' E 135°25'0 0.0
2015-Apr-14 19:33N 34°33' E 135°25'0 0.0
2015-Apr-14 18:33N 34°33' E 135°25'0 0.1
2015-Apr-14 17:33N 34°33' E 135°25'0 0.1
2015-Apr-14 16:28N 34°33' E 135°25'0 0.0
2015-Apr-14 15:30N 34°33' E 135°25'0 0.0
2015-Apr-14 14:33N 34°33' E 135°25'0 0.1
2015-Apr-14 13:32N 34°33' E 135°25'0 0.1
2015-Apr-14 12:33N 34°33' E 135°25'0 0.0
2015-Apr-14 11:32N 34°33' E 135°25'0 0.1
2015-Apr-14 10:32N 34°33' E 135°25'0 0.1
2015-Apr-14 09:33N 34°33' E 135°25'0 0.0
2015-Apr-14 08:33N 34°33' E 135°25'0 0.0
2015-Apr-14 07:32N 34°33' E 135°25'0 0.1
2015-Apr-14 06:33N 34°33' E 135°25'0 0.0
2015-Apr-14 05:33N 34°33' E 135°25'0 0.0
2015-Apr-14 04:33N 34°33' E 135°25'0 0.0
2015-Apr-14 03:33N 34°33' E 135°25'0 0.1
2015-Apr-14 02:32N 34°33' E 135°25'0 0.1
2015-Apr-14 01:32N 34°33' E 135°25'3 3.5
2015-Apr-14 00:33N 34°33' E 135°21'2 2.4
2015-Apr-13 23:33N 34°31' E 135°19'11 1.0
2015-Apr-13 12:33N 34°23' E 135°11'1311.9
2015-Apr-13 11:30N 34°15' E 134°59'1212.5
2015-Apr-13 10:32N 34°27' E 135°03'8 8.6
2015-Apr-13 09:34N 34°35' E 135°04'20 0.6
2015-Apr-12 01:22N 34°40' E 134°41'18 9.9
2015-Apr-11 23:33N 34°37' E 135°03'7 7.4
2015-Apr-11 22:33N 34°30' E 135°07'1411.4
2015-Apr-11 21:18N 34°17' E 134°59'7 9.5
2015-Apr-11 20:34N 34°10' E 135°00'8 7.9
2015-Apr-11 19:34N 34°13' E 135°09'0 0.0
2015-Apr-11 18:33N 34°13' E 135°09'0 0.0
2015-Apr-11 17:34N 34°13' E 135°09'0 0.0
2015-Apr-11 16:33N 34°13' E 135°09'0 0.0
2015-Apr-11 15:33N 34°13' E 135°09'0 0.0
2015-Apr-11 14:33N 34°13' E 135°09'0 0.0
2015-Apr-11 13:34N 34°13' E 135°09'0 0.0
2015-Apr-11 12:33N 34°13' E 135°09'0 0.0
2015-Apr-11 11:33N 34°13' E 135°09'0 0.0
2015-Apr-11 10:33N 34°13' E 135°09'0 0.0
2015-Apr-11 09:34N 34°13' E 135°09'0 0.0
2015-Apr-11 08:33N 34°13' E 135°09'0 0.0
2015-Apr-11 07:33N 34°13' E 135°09'0 0.0
2015-Apr-11 06:33N 34°13' E 135°09'0 0.0
2015-Apr-11 05:33N 34°13' E 135°09'0 0.0
2015-Apr-11 04:33N 34°13' E 135°09'0 0.0
2015-Apr-11 03:33N 34°13' E 135°09'1 1.0
2015-Apr-11 02:33N 34°13' E 135°08'9 8.1
2015-Apr-11 01:30N 34°21' E 135°07'1112.0
2015-Apr-11 00:33N 34°28' E 135°19'6 6.3
2015-Apr-10 23:33N 34°33' E 135°24'2 2.3
2015-Apr-10 22:31N 34°33' E 135°27'0 0.0
2015-Apr-10 21:33N 34°33' E 135°27'0 0.0
2015-Apr-10 20:32N 34°33' E 135°27'0 0.0
2015-Apr-10 19:33N 34°33' E 135°27'0 0.0
2015-Apr-10 18:33N 34°33' E 135°27'0 0.0
2015-Apr-10 17:33N 34°33' E 135°27'0 0.0
2015-Apr-10 16:33N 34°33' E 135°27'0 0.0
2015-Apr-10 15:33N 34°33' E 135°27'0 0.0
2015-Apr-10 14:32N 34°33' E 135°27'0 0.0
2015-Apr-10 13:32N 34°33' E 135°27'0 0.0
2015-Apr-10 12:33N 34°33' E 135°27'0 0.0
2015-Apr-10 11:33N 34°33' E 135°27'0 0.0
2015-Apr-10 10:33N 34°33' E 135°27'0 0.0
2015-Apr-10 09:32N 34°33' E 135°27'0 0.0
2015-Apr-10 08:30N 34°33' E 135°27'5 5.7
2015-Apr-10 07:33N 34°29' E 135°22'0 0.3
2015-Apr-10 06:33N 34°29' E 135°22'0 0.0
2015-Apr-10 05:32N 34°29' E 135°22'0 0.0
2015-Apr-10 04:32N 34°29' E 135°22'5 4.5
2015-Apr-10 03:32N 34°33' E 135°24'1 0.7
2015-Apr-10 02:31N 34°34' E 135°24'2 1.6
2015-Apr-10 01:18N 34°33' E 135°27'0 0.0
2015-Apr-10 00:32N 34°33' E 135°27'0 0.0
2015-Apr-09 20:10N 34°33' E 135°27'0 0.0
2015-Apr-09 19:31N 34°33' E 135°27'0 0.0
2015-Apr-09 18:33N 34°33' E 135°27'0 0.0
2015-Apr-09 14:04N 34°33' E 135°27'0 0.0
2015-Apr-09 10:33N 34°33' E 135°27'0 0.0
2015-Apr-09 09:31N 34°33' E 135°27'0 0.0
2015-Apr-09 08:33N 34°33' E 135°27'0 0.0
2015-Apr-09 07:29N 34°33' E 135°27'0 0.0
2015-Apr-09 04:21N 34°33' E 135°27'2 1.6
2015-Apr-09 03:08N 34°34' E 135°24'1 2.2
2015-Apr-09 02:28N 34°33' E 135°23'2 1.8
2015-Apr-09 01:33N 34°34' E 135°21'2 2.1
2015-Apr-09 00:32N 34°34' E 135°23'2 2.0
2015-Apr-08 23:31N 34°33' E 135°26'1 0.8
2015-Apr-08 22:33N 34°33' E 135°27'0 0.0
2015-Apr-08 21:33N 34°33' E 135°27'0 0.0
2015-Apr-08 20:33N 34°33' E 135°27'0 0.0
2015-Apr-08 19:33N 34°33' E 135°27'  

Dump ship's entire track history